Etusivu
METAR-TAF:

METAR-TAF

Lentoasemat :

Assuan, Egypti

Leveyspiiri: 23-58N, Pituuspiiri: 032-47E, korkeus merenpinnasta: 200 m

Tämänhetkinen sää

Tämä raportti tehtiin 1 tunti ja 59 minuuttia sitten, kello 09.00 UTC
Tuuli 14 kn pohjoisesta/koillisesta
Lämpötila 26°C
Kosteus 18%
Ilmanpaine 1016 hPa
Näkyvyys 10 km tai enemmän
ei pilviä alle 1500 m:ssä eikä cumulonimbus-pilviä

METAR: HESN 290900Z 02014KT CAVOK 26/M00 Q1016 NOSIG

Aika: 12:59 (10:59 UTC)

Sääennuste

Tämä raportti tehtiin 5 tuntia ja 59 minuuttia sitten, kello 05.00 UTC
Ennuste voimassa 29. päivästä klo 06 UTC - 01. päivään klo 12 UTC
Tuuli 10 kn pohjoisesta puuskistuen 20 kn:hen
Näkyvyys 10 km tai enemmän
ei pilviä alle 1500 m:ssä eikä cumulonimbus-pilviä

TAF: HESN 290500Z 2906/0112 35010G20KT CAVOK

Säähavainnot ja -ennusteet yli 4000 lentoasemalta (METAR- ja TAF-raportit).

Käytössä olevat sääasemat on merkitty karttaan keltaisilla ja punaisilla pisteillä.

Aseta hiiri pisteen päälle nähdäksesi sääaseman nimen.

Klikkaa sitten nähdäksesi säähavainnot ja -ennusteet.

Kartan vaihtaminen: klikkaa mustalla rastilla varustettuja vihreitä pisteitä, niin voit zoomata sisään; viivalla varustettua vihreää pistettä, niin voit zoomata ulos tai vihreitä nuolia, niin pääset viereisille kartoille.


METAR-TAF: